Weather Links

Aviation Weather Information
GALVESTON, TX
Metar
KGLS 231552Z 15012KT 7SM FEW010 BKN050 22/20 A3010 RMK AO2 PRESRR SLP193 T02220200

15:52 UTC

Wind: 150° 12kt

Visibility: 7 SM

Sky: FEW 1000 ft

Temp: 22 deg C / 71.6 deg F

Dewpoint: 20 deg C / 68 deg F

Pressure: 30.1 inHg

TAF
KGLS 231309Z 2313/2412 13011KT P6SM FEW007 BKN200 TEMPO 2313/2315 BKN009 OVC035 FM231500 13014KT P6SM BKN019 BKN150 FM231700 13015KT P6SM SCT025 BKN140 FM240200 12010KT P6SM BKN017 BKN030
Pireps (9)
VCT UUA /OV PSX /TM 1602 /FL080 /TP P46T /TB SEV /RM FM ZHU AWC-WEB
IAH UA /OV IAH/TM 1530/FL180/TP UNKN/TB MOD CHOP 100-180/RM FM ZHU AWC-WEB/
IAH UA /OV IAH360020/TM 1530/FL190/TP BE20/TA M08/IC LGT RIME/RM FM ZHU AWC-WEB/
BPT UA /OV BPT270025/TM 1522/FL180/TP E175/TB MOD CHOP 100-180/RM FM ZHU AWC-WEB/
IAH UA /OV DEPT RY9/TM 1518/FL011/TP B739/SK BN011/TA 22/TB CONTINUOUS LT TURB
VCT UA /OV PSX135020/TM 1517/FL200/TP BE20/TA M07/IC LGT RIME/RM FM ZHU AWC-WEB/
BPT UA /OV BPT30003/TM 1505/FLDURD/TP C525
HOU UA /OV HOU180015/TM 1500/FLDURGC/TP C25B/TB LIGHT TURB BET 070-080
IAH UA /OV FINAL RY08L/TM 1418/FL012/TP B737/SK BKN012